Terminal Aerodrome Forecast
Issued by NWS Twin Cities, MN

Home | Current Version | Previous Version | Text Only | Print | Product List | Glossary Off
Versions: 1 2 3 4 5 6 7 8 9 10 11 12 13 14

551
FTUS43 KMPX 220520
TAFEAU
TAF
KEAU 220520Z 2206/2306 25010KT P6SM -RA OVC015
     FM220800 25010KT P6SM SCT025 OVC035
     FM221100 26007KT P6SM SCT100
     FM221700 27011KT P6SM BKN050=

USA.gov is the U.S. government's official web portal to all federal, state and local government web resources and services.